Timeline UpdatesTrip UpdatesNews PostsPvt PostsTravel TipsAdmin PostsConv PostsFollowed PostsChat RequestsBlog PostsPNR Posts

Disclaimer
Search
 
 
Mon Jul 28, 2014 11:47:47 ISTHomeTrainsΣChainsAtlasPNRForumGalleryNewsFAQTripsMembersLoginFeedback
No Recent News for this Train
Other Trains in the News **new
Latest...
..
Tue Jul 15, 2014 (10:54AM)
⇐ Return Journey: Train# 18237

18238/Chhattisgarh Express

Sep 16 2013 (7:54PM)
Change Departure Station:
Change Arrival Station:
Post a Train Travel TipPost a Train Travel Tip **new
Post a Comment/Question/Picture/VideoPost a Comment/Question/Picture/Video
Inaugural Run
Sat Jan 01, 1977
Pantry/Catering
✓ Pantry Car Avbl
✓ Catering Avbl
Loco/Rake Reversals
NGP/Nagpur Junction (8);
RSA - Rake Sharing
0
Rake/Coach Composition
LOCO-SLR-GS-GS-S1-S2-S3-S4-S5-S6-S7-S8-S9-S10-PC-S11-S12-B3-B2-B1-A1-HA1-GS-SLR-SP1
Loco
ASR - NZM ---- TKD WDP4 NZM - NGP --- AJNI...
Read more...
WAP7 NGP - BSP --- ET WAP4 Author: Mahesh Gupta Entry# 295348
News    PNR    Forum    Time-Table    Availability    Fare Chart    Map    Arr/Dep History    Trips    Gallery    ΣChains    X/O    Timeline    
Travel Time: 6h 24m    11 halts    Distance: 283 km    Avg Speed: 44 km/hr
Type: Mail/Express
Zone: SECR/South East Central
Departs @ 05:56 (Avg 1h 2m late)
Platform# ???
SMTWTFS
Gondia Junction/G 
Arrives @ 12:20 (Avg 36m late)
Platform# 8
SMTWTFS
Bilaspur Junction/BSP 

11 halts. 38 intermediate Stations between Gondia Junction and Bilaspur Junction

Show ALL intermediate Stations  Show Old Time-Table

#CodeStation NameX/OArrivesAvgDepartsAvgHaltPFDay#KmSpeedElevZoneAddress
1ASRAmritsar Junction (5)  -16:15+1121-1728.377233mNRAmritsar 143002, Punjab
2JNLJandiala (2)  16:30+2116:32+212m21-1709.280238mNRJandiala, Punjab
3BEASBeas Junction (2)  16:50+2316:52+232m21-1685.361238mNRBeas, Punjab
4KREKartarpur (2)X  17:13+2217:15+232m11-1663.968236mNRKartarpur, Punjab
5JUCJalandhar City Junction (5)X  17:28+2517:35+287m21-1649.222239mNRJalandhar 144001, Punjab
6JRCJalandhar Cantt. Junction (3)X  17:48+2417:50+342m21-1644.465239mNRNear Rama Mandi, Punjab
7PGWPhagwara Junction (3)X  18:05+3518:07+352m11-1628.142245mNRPhagwara, Punjab
8GRYGoraya (2)XO  18:21+3318:23+362m11-1618.233240mNRGoraya, Punjab
9PHRPhillaur Junction (3)  18:46+2418:48+232m11-1605.546246mNRPhillaur, Punjab
10LDHLudhiana Junction (7)X  19:05+2519:15+2610m11-1592.422246mNRLudhiana 141001, Punjab
11SNLSanehwal (3)X  19:56+719:58+112m21-1577.349260mNRLudhiana, Punjab
12DOADoraha (2)X  20:07+1720:08+181m21-1569.957261mNRDoraha, Punjab
13CHAChawapail (2)X  20:18+1920:20+192m21-1560.566267mNRLudhiana, Punjab
14KNNKhanna (3)  20:30+2020:32+212m21-1549.654269mNRNH 1, Punjab
15GVGMandi Gobindgarh (2)  20:41+2120:43+212m21-1541.549268mNRMandi Gobindgarh, Punjab
16SIRSirhind Junction (3)X  20:55+2120:57+212m21-1531.765271mNRSirhind, Punjab
17RPJRajpura Junction (3)X  21:20+2321:22+232m21-1506.953272mNRNH-1, Punjab
18UBCAmbala City (3)X  21:45+2021:46+221m11-1486.421273mNRNH-1, Haryana
19UMBAmbala Cantt. Junction (7)X  22:08+1522:20+1612m21-1478.868278mNRAmbala 133001, Haryana
20RAABarara (2)  22:42+2022:44+242m11-1454.071279mNRBarara, Haryana
21JUDWJagadhri Workshop (2)  23:02+2523:04+262m11-1432.843280mNRRailway Workshop Road, Haryana
22JUDYamunanagar-Jagadhri (3)  23:11+2723:13+292m21-1427.835275mNRYamunanagar, Haryana
23SRESaharanpur Junction (6)X  00:05+1500:15+1610m32-1397.668276mNRSaharanpur, Uttar Pradesh
24DBDDeoband (2)  00:45+3100:47+322m12-1363.476258mNRSaharanpur, Uttar Pradesh
25MOZMuzaffarnagar (3)  01:06+3501:08+362m12-1339.451247mNRMuzaffarNagar, Uttar Pradesh
26KATKhatauli (2)X  01:34+3201:36+362m--2-1317.354239mNRKhatauli, Uttar Pradesh
27DRLADaurala (1)  01:56+3301:58+342m12-1299.361232mNRMeerut, Uttar Pradesh
28MUTMeerut Cantt. (2)  02:09+3502:11+362m12-1288.229230mNRMeerut, Uttar Pradesh
29MTCMeerut City Junction (6)  02:20+3602:25+345m22-1283.883229mNRMeerut, Uttar Pradesh
30MDNRModinagar (2)  02:39+3802:41+382m--2-1264.478221mNRGhaziabad, Uttar Pradesh
31GUHGuldhar (2)  02:55+3902:57+382m--2-1246.319224mNRGhaziabad, Uttar Pradesh
32GZBGhaziabad Junction (6)  03:28+2503:30+262m32-1236.640217mNRGhaziabad, Uttar Pradesh
33SBBSahibabad Junction (5)  03:40+3103:41+321m--2-1229.928209mNRGhaziabad, Uttar Pradesh
34NZMDelhi Hazrat Nizamuddin (7)X04:15+2904:40+3125m22-1213.960209mNRNizamuddin East/Sarai KaleKhan Bus Terminal, Delhi NCT
35BVHBallabgarh (5)X  05:09+3605:11+362m42-1185.042203mNRFaridabad, Haryana
36PWLPalwal (8)X  05:41+3105:43+322m42-1163.885200mNRPalwal, Haryana
37KSVKosi Kalan (3)X  06:13+3906:15+392m22-1121.456189mNCRKosi Kalan, Uttar Pradesh
38CHJChata (4)X  06:26+4006:28+412m12-1111.169185mNCRChhata, Uttar Pradesh
39MTJMathura Junction (10)X  06:55+4407:00+435m12-1079.962179mNCRMathura, Uttar Pradesh
40RKMRaja Ki Mandi (4)XO  07:48+5107:50+522m22-1030.26170mNCRAgra, Uttar Pradesh
41AGCAgra Cantt. (6)X  08:30+3208:40+3410m12-1026.279174mNCRAgra, Uttar Pradesh
42DHODholpur Junction (3)X  09:20+4909:22+1:022m22-973.670177mNCRDholpur, Rajasthan
43MRAMorena (3)X  09:45+1:0909:50+1:125m12-946.872176mNCRMorena, Madhya Pradesh
44BAOBanmorXO  10:06+1:1610:08+1:202m--2-927.531189mNCRGwalior, Madhya Pradesh
45GWLGwalior Junction (4)XO  10:45+1:1310:50+1:175m12-908.263214mNCRGwalior, Madhya Pradesh
46DBADabra (3)  11:30+1:1911:32+1:202m32-865.963204mNCRDabra(District-Gwalior), Madhya Pradesh
47SORSonagir (2)O  11:50+1:2011:52+1:222m--2-847.130211mNCRDatia, Madhya Pradesh
48DAADatia (2)X  12:15+1:1412:17+1:152m--2-835.628264mNCRDatia, Madhya Pradesh
49JHSJhansi Junction (7)  13:10+5013:20+5410m--2-810.561259mNCRJhansi, Uttar Pradesh
50BABBabina (3)  13:45+1:0413:47+1:062m12-785.060285mNCRBabina, Uttar Pradesh
51BZYBasai (3)X  13:59+1:0914:01+1:012m12-772.948287mNCR07522289600(Gate ManMob. - 9452701575), Madhya Pradesh
52TBTTalbahat (4)  14:17+1:0014:19+1:032m22-760.183314mNCRKhaniyadhana Station Rd, Madhya Pradesh
53LARLalitpur (3)  14:48+1:0414:50+1:062m12-720.285373mNCRLalitpur, Uttar Pradesh
54DUADhaura (3)XO  15:10+1:1315:12+1:162m--2-691.928407mNCRDhaura Tanda, Madhya Pradesh
55BINABina Junction (4)X  16:25+5916:30+1:005m22-657.369414mWCRJn Pt - KATNI/GUNA/ BPL/JHS, Madhya Pradesh
56MABAMandi Bamora (3)XO  16:45+1:0516:47+1:062m22-640.178413mWCRState Highway 14, Madhya Pradesh
57BAQGanj Basoda (4)  17:09+1:0817:11+1:082m22-611.584416mWCRVidisha, Madhya Pradesh
58BHSVidisha (3)X  17:39+1:1217:41+1:142m22-572.254432mWCRVidisha, Madhya Pradesh
59BPLBhopal Junction (6)X  18:40+1:0918:45+1:045m12-518.738497mWCRBhopal, Madhya Pradesh
60HBJBhopal HabibGanj (5)  18:55+1:0818:57+1:082m--2-512.577496mWCRHabibGanj, Madhya Pradesh
61ODGObaidulla GanjX  19:20+1:2319:22+1:212m--2-482.833450mWCRObaidullaganj Raisen Dist., Madhya Pradesh
62HBDHoshangabad (2)XO  20:30+1:0320:32+1:062m22-445.129308mWCRHoshangabad, Madhya Pradesh
63ETItarsi Junction (7)  21:10+5721:15+1:035m32-427.068329mWCRItarsi 461111, Madhya Pradesh
64GDYAGhoradongri (3)X  22:17+1:0922:19+1:092m--2-356.650410mCRBetul, Madhya Pradesh
65BZUBetul (3)  23:02+1:1123:05+1:123m--2-320.746644mCRBetul, Madhya Pradesh
66AMLAAmla Junction (5)  23:35+1:0400:10+5335m12-297.898733mCRAmla Distt. Betul, Madhya Pradesh
67MTYMultai (2)  00:24+5800:26+592m--3-275.058762mCRMultai, Madhya Pradesh
68PARPandhurna (2)  01:08+1:0101:10+1:012m13-234.285481mCRDistt: Chhindwara, Madhya Pradesh
69NRKRNarkher Junction (3)X  01:23+1:0501:25+1:052m--3-215.966411mCRNarkher, Maharashtra
70KATLKatol (2)X  01:48+1:0501:50+1:072m--3-190.736415mCRKatol, Maharashtra
71NGPNagpur Junction (8)03:30+3703:55+4125m63-129.948314mCRNagpur 440001, Maharashtra
72KPKamptee (3)X  04:13+4104:15+442m--3-115.596290mSECRMH 441001, Maharashtra
73BRDBhandara Road (2)X  04:45+5304:47+532m23-67.677266mSECRState Highway 252, Maharashtra
74TMRTumsar Road (3)  05:01+5305:03+542m--3-49.781267mSECRBhandara, Maharashtra
75TROTirora (3)  05:18+5705:20+582m--3-29.357282mSECRDist Gondiya, Maharashtra
76Gondia Junction (7)»X  05:51+1:0305:56+1:025m--30.098316mSECRGondia 441601, Maharashtra
77AGNAmgaon (2)  06:10+1:0006:12+1:012m--322.880317mSECRGondia, Maharashtra
78SKSSalekasa (2)  06:23+1:0306:25+1:042m--337.556312mSECRRajnandgaon, Chhattisgarh
79DGGDongargarh (2)  07:03+1:0107:05+1:032m--373.363353mSECRDongargarh, Chhattisgarh
80RJNRaj Nandgaon (3)  07:35+1:0607:40+1:055m--3104.830313mSECRRajnandgaon, Chhattisgarh
81DURGDurg Junction (6)X  08:40+3808:55+3815m--3135.360299mSECRPh: 91-788-2322059, Chhattisgarh
82BPHBBhilai Power House (3)X  09:04+3109:06+312m--3144.243312mSECRBhilai, Chhattisgarh
83RRaipur Junction (6)  09:45+4209:55+4510m53172.269297mSECRRaipur, Chhattisgarh
84TLDTilda (3)X  10:28+5810:30+582m--3210.449291mSECRBanjari Rd, Chhattisgarh
85HNHathbandhX  10:43+5510:45+552m--3221.171283mSECRRaipur, Chhattisgarh
86BYTBhatapara (4)X  10:58+5611:00+562m--3236.561270mSECRBanjari Road, Chhattisgarh
87BYLBelhaX  11:30+5611:32+552m--3267.119269mSECRCollege Road, Chhattisgarh
88BSP•Bilaspur Junction (8)•  12:20+36-83282.6-271mSECRBilaspur, Chhattisgarh
Scroll to Top
Scroll to Bottom